sensor_id;sensor_type;location;lat;lon;timestamp;P1;durP1;ratioP1;P2;durP2;ratioP2
51724;SDS011;37801;53.224;6.552;2022-12-04T00:00:08;28.20;;;14.85;;
51724;SDS011;37801;53.224;6.552;2022-12-04T00:02:37;29.23;;;14.02;;
51724;SDS011;37801;53.224;6.552;2022-12-04T00:05:04;27.10;;;15.05;;
51724;SDS011;37801;53.224;6.552;2022-12-04T00:07:31;30.63;;;16.15;;
51724;SDS011;37801;53.224;6.552;2022-12-04T00:09:56;29.30;;;15.25;;
51724;SDS011;37801;53.224;6.552;2022-12-04T00:12:22;29.70;;;14.48;;
51724;SDS011;37801;53.224;6.552;2022-12-04T00:14:48;26.33;;;14.35;;
51724;SDS011;37801;53.224;6.552;2022-12-04T00:17:14;34.33;;;15.73;;
51724;SDS011;37801;53.224;6.552;2022-12-04T00:19:40;30.02;;;15.98;;
51724;SDS011;37801;53.224;6.552;2022-12-04T00:22:05;29.75;;;15.35;;
51724;SDS011;37801;53.224;6.552;2022-12-04T00:24:31;27.80;;;14.75;;
51724;SDS011;37801;53.224;6.552;2022-12-04T00:26:57;32.10;;;16.33;;
51724;SDS011;37801;53.224;6.552;2022-12-04T00:29:23;27.63;;;15.02;;
51724;SDS011;37801;53.224;6.552;2022-12-04T00:31:49;29.63;;;15.65;;
51724;SDS011;37801;53.224;6.552;2022-12-04T00:34:14;31.30;;;15.40;;
51724;SDS011;37801;53.224;6.552;2022-12-04T00:36:40;29.75;;;15.07;;
51724;SDS011;37801;53.224;6.552;2022-12-04T00:39:06;31.23;;;15.43;;
51724;SDS011;37801;53.224;6.552;2022-12-04T00:41:32;32.63;;;15.80;;
51724;SDS011;37801;53.224;6.552;2022-12-04T00:43:58;29.23;;;15.80;;
51724;SDS011;37801;53.224;6.552;2022-12-04T00:46:25;31.35;;;15.05;;
51724;SDS011;37801;53.224;6.552;2022-12-04T00:48:51;30.65;;;15.73;;
51724;SDS011;37801;53.224;6.552;2022-12-04T00:51:20;29.52;;;15.13;;
51724;SDS011;37801;53.224;6.552;2022-12-04T00:53:47;31.25;;;15.63;;
51724;SDS011;37801;53.224;6.552;2022-12-04T00:56:16;30.25;;;16.20;;
51724;SDS011;37801;53.224;6.552;2022-12-04T00:58:50;32.83;;;15.85;;
51724;SDS011;37801;53.224;6.552;2022-12-04T01:01:18;31.42;;;15.60;;
51724;SDS011;37801;53.224;6.552;2022-12-04T01:03:44;31.52;;;16.02;;
51724;SDS011;37801;53.224;6.552;2022-12-04T01:06:18;32.08;;;16.27;;
51724;SDS011;37801;53.224;6.552;2022-12-04T01:08:49;35.55;;;17.08;;
51724;SDS011;37801;53.224;6.552;2022-12-04T01:11:16;31.25;;;16.23;;
51724;SDS011;37801;53.224;6.552;2022-12-04T01:13:42;33.72;;;16.92;;
51724;SDS011;37801;53.224;6.552;2022-12-04T01:16:14;33.75;;;16.67;;
51724;SDS011;37801;53.224;6.552;2022-12-04T01:18:44;35.67;;;17.15;;
51724;SDS011;37801;53.224;6.552;2022-12-04T01:21:10;32.95;;;17.55;;
51724;SDS011;37801;53.224;6.552;2022-12-04T01:23:36;38.05;;;18.23;;
51724;SDS011;37801;53.224;6.552;2022-12-04T01:26:02;35.47;;;17.52;;
51724;SDS011;37801;53.224;6.552;2022-12-04T01:28:28;34.85;;;17.20;;
51724;SDS011;37801;53.224;6.552;2022-12-04T01:33:27;33.60;;;16.95;;
51724;SDS011;37801;53.224;6.552;2022-12-04T01:35:54;37.50;;;17.83;;
51724;SDS011;37801;53.224;6.552;2022-12-04T01:38:21;34.95;;;16.95;;
51724;SDS011;37801;53.224;6.552;2022-12-04T01:40:47;33.85;;;16.77;;
51724;SDS011;37801;53.224;6.552;2022-12-04T01:43:13;34.42;;;16.95;;
51724;SDS011;37801;53.224;6.552;2022-12-04T01:45:40;36.58;;;17.80;;
51724;SDS011;37801;53.224;6.552;2022-12-04T01:48:09;35.58;;;17.50;;
51724;SDS011;37801;53.224;6.552;2022-12-04T01:50:43;33.28;;;17.13;;
51724;SDS011;37801;53.224;6.552;2022-12-04T01:53:10;37.33;;;18.13;;
51724;SDS011;37801;53.224;6.552;2022-12-04T01:55:36;35.05;;;17.52;;
51724;SDS011;37801;53.224;6.552;2022-12-04T01:58:03;34.15;;;16.95;;
51724;SDS011;37801;53.224;6.552;2022-12-04T02:00:30;36.67;;;17.88;;
51724;SDS011;37801;53.224;6.552;2022-12-04T02:02:56;40.95;;;18.52;;
51724;SDS011;37801;53.224;6.552;2022-12-04T02:05:22;36.72;;;17.48;;
51724;SDS011;37801;53.224;6.552;2022-12-04T02:07:49;34.53;;;17.58;;
51724;SDS011;37801;53.224;6.552;2022-12-04T02:10:17;37.55;;;17.48;;
51724;SDS011;37801;53.224;6.552;2022-12-04T02:15:36;36.92;;;18.63;;
51724;SDS011;37801;53.224;6.552;2022-12-04T02:21:36;35.85;;;16.75;;
51724;SDS011;37801;53.224;6.552;2022-12-04T02:27:00;35.75;;;17.55;;
51724;SDS011;37801;53.224;6.552;2022-12-04T02:29:33;35.00;;;17.33;;
51724;SDS011;37801;53.224;6.552;2022-12-04T02:32:11;37.50;;;18.45;;
51724;SDS011;37801;53.224;6.552;2022-12-04T02:34:52;33.03;;;16.50;;
51724;SDS011;37801;53.224;6.552;2022-12-04T02:37:33;34.15;;;17.63;;
51724;SDS011;37801;53.224;6.552;2022-12-04T02:40:07;36.60;;;16.83;;
51724;SDS011;37801;53.224;6.552;2022-12-04T02:42:43;39.05;;;18.60;;
51724;SDS011;37801;53.224;6.552;2022-12-04T02:45:14;38.33;;;18.90;;
51724;SDS011;37801;53.224;6.552;2022-12-04T02:47:54;36.22;;;18.70;;
51724;SDS011;37801;53.224;6.552;2022-12-04T02:50:22;41.08;;;19.38;;
51724;SDS011;37801;53.224;6.552;2022-12-04T02:52:54;35.25;;;17.58;;
51724;SDS011;37801;53.224;6.552;2022-12-04T02:55:27;39.47;;;20.65;;
51724;SDS011;37801;53.224;6.552;2022-12-04T02:57:58;40.17;;;19.98;;
51724;SDS011;37801;53.224;6.552;2022-12-04T03:00:30;39.85;;;19.88;;
51724;SDS011;37801;53.224;6.552;2022-12-04T03:02:58;40.35;;;20.17;;
51724;SDS011;37801;53.224;6.552;2022-12-04T03:05:51;40.00;;;19.23;;
51724;SDS011;37801;53.224;6.552;2022-12-04T03:10:51;36.90;;;18.90;;
51724;SDS011;37801;53.224;6.552;2022-12-04T03:13:25;41.25;;;21.23;;
51724;SDS011;37801;53.224;6.552;2022-12-04T03:16:12;41.95;;;21.33;;
51724;SDS011;37801;53.224;6.552;2022-12-04T03:18:50;43.42;;;22.80;;
51724;SDS011;37801;53.224;6.552;2022-12-04T03:21:22;43.65;;;21.63;;
51724;SDS011;37801;53.224;6.552;2022-12-04T03:24:04;45.70;;;22.58;;
51724;SDS011;37801;53.224;6.552;2022-12-04T03:31:40;45.80;;;22.90;;
51724;SDS011;37801;53.224;6.552;2022-12-04T03:34:18;46.83;;;23.17;;
51724;SDS011;37801;53.224;6.552;2022-12-04T03:36:54;47.65;;;24.45;;
51724;SDS011;37801;53.224;6.552;2022-12-04T03:39:24;46.47;;;23.70;;
51724;SDS011;37801;53.224;6.552;2022-12-04T03:42:04;44.53;;;23.30;;
51724;SDS011;37801;53.224;6.552;2022-12-04T03:47:40;44.13;;;23.02;;
51724;SDS011;37801;53.224;6.552;2022-12-04T03:50:55;42.90;;;22.13;;
51724;SDS011;37801;53.224;6.552;2022-12-04T03:53:16;47.15;;;23.60;;
51724;SDS011;37801;53.224;6.552;2022-12-04T03:58:23;46.05;;;23.42;;
51724;SDS011;37801;53.224;6.552;2022-12-04T04:00:53;46.88;;;24.15;;
51724;SDS011;37801;53.224;6.552;2022-12-04T04:03:21;46.03;;;24.15;;
51724;SDS011;37801;53.224;6.552;2022-12-04T04:05:53;46.75;;;24.00;;
51724;SDS011;37801;53.224;6.552;2022-12-04T04:08:26;43.50;;;23.08;;
51724;SDS011;37801;53.224;6.552;2022-12-04T04:10:59;48.50;;;24.80;;
51724;SDS011;37801;53.224;6.552;2022-12-04T04:13:38;47.78;;;24.67;;
51724;SDS011;37801;53.224;6.552;2022-12-04T04:16:30;45.15;;;23.52;;
51724;SDS011;37801;53.224;6.552;2022-12-04T04:19:18;43.22;;;22.75;;
51724;SDS011;37801;53.224;6.552;2022-12-04T04:22:05;48.45;;;23.40;;
51724;SDS011;37801;53.224;6.552;2022-12-04T04:24:56;47.33;;;23.95;;
51724;SDS011;37801;53.224;6.552;2022-12-04T04:27:28;43.63;;;23.15;;
51724;SDS011;37801;53.224;6.552;2022-12-04T04:29:54;44.47;;;23.33;;
51724;SDS011;37801;53.224;6.552;2022-12-04T04:40:23;47.13;;;23.92;;
51724;SDS011;37801;53.224;6.552;2022-12-04T04:45:56;47.40;;;24.13;;
51724;SDS011;37801;53.224;6.552;2022-12-04T04:48:30;50.55;;;24.38;;
51724;SDS011;37801;53.224;6.552;2022-12-04T04:51:03;47.00;;;23.48;;
51724;SDS011;37801;53.224;6.552;2022-12-04T04:53:37;48.88;;;24.40;;
51724;SDS011;37801;53.224;6.552;2022-12-04T04:56:06;44.35;;;23.52;;
51724;SDS011;37801;53.224;6.552;2022-12-04T04:58:33;49.00;;;25.38;;
51724;SDS011;37801;53.224;6.552;2022-12-04T05:01:00;43.08;;;24.27;;
51724;SDS011;37801;53.224;6.552;2022-12-04T05:03:29;48.47;;;25.48;;
51724;SDS011;37801;53.224;6.552;2022-12-04T05:05:56;49.28;;;25.42;;
51724;SDS011;37801;53.224;6.552;2022-12-04T05:08:21;45.13;;;23.98;;
51724;SDS011;37801;53.224;6.552;2022-12-04T05:10:47;48.70;;;24.58;;
51724;SDS011;37801;53.224;6.552;2022-12-04T05:13:14;48.75;;;25.40;;
51724;SDS011;37801;53.224;6.552;2022-12-04T05:15:40;49.28;;;24.98;;
51724;SDS011;37801;53.224;6.552;2022-12-04T05:18:06;45.47;;;24.63;;
51724;SDS011;37801;53.224;6.552;2022-12-04T05:20:32;47.92;;;25.17;;
51724;SDS011;37801;53.224;6.552;2022-12-04T05:23:01;47.10;;;23.50;;
51724;SDS011;37801;53.224;6.552;2022-12-04T05:25:27;50.42;;;25.55;;
51724;SDS011;37801;53.224;6.552;2022-12-04T05:27:53;49.45;;;26.38;;
51724;SDS011;37801;53.224;6.552;2022-12-04T05:30:19;47.92;;;25.27;;
51724;SDS011;37801;53.224;6.552;2022-12-04T05:32:45;48.22;;;24.83;;
51724;SDS011;37801;53.224;6.552;2022-12-04T05:35:10;50.00;;;25.08;;
51724;SDS011;37801;53.224;6.552;2022-12-04T05:37:36;47.53;;;24.50;;
51724;SDS011;37801;53.224;6.552;2022-12-04T05:40:04;49.72;;;24.50;;
51724;SDS011;37801;53.224;6.552;2022-12-04T05:42:31;45.00;;;24.30;;
51724;SDS011;37801;53.224;6.552;2022-12-04T05:44:56;46.85;;;24.20;;
51724;SDS011;37801;53.224;6.552;2022-12-04T05:47:22;47.97;;;24.77;;
51724;SDS011;37801;53.224;6.552;2022-12-04T05:49:48;44.95;;;24.52;;
51724;SDS011;37801;53.224;6.552;2022-12-04T05:52:14;45.53;;;24.42;;
51724;SDS011;37801;53.224;6.552;2022-12-04T05:54:39;46.55;;;24.38;;
51724;SDS011;37801;53.224;6.552;2022-12-04T05:57:05;41.45;;;23.05;;
51724;SDS011;37801;53.224;6.552;2022-12-04T05:59:31;45.17;;;23.10;;
51724;SDS011;37801;53.224;6.552;2022-12-04T06:01:57;46.05;;;24.80;;
51724;SDS011;37801;53.224;6.552;2022-12-04T06:04:23;47.63;;;24.60;;
51724;SDS011;37801;53.224;6.552;2022-12-04T06:06:48;42.50;;;24.17;;
51724;SDS011;37801;53.224;6.552;2022-12-04T06:09:14;42.10;;;23.65;;
51724;SDS011;37801;53.224;6.552;2022-12-04T06:11:40;46.72;;;24.02;;
51724;SDS011;37801;53.224;6.552;2022-12-04T06:14:08;43.13;;;23.15;;
51724;SDS011;37801;53.224;6.552;2022-12-04T06:16:37;44.50;;;24.00;;
51724;SDS011;37801;53.224;6.552;2022-12-04T06:19:06;46.20;;;24.30;;
51724;SDS011;37801;53.224;6.552;2022-12-04T06:21:37;46.10;;;24.83;;
51724;SDS011;37801;53.224;6.552;2022-12-04T06:24:04;43.65;;;23.88;;
51724;SDS011;37801;53.224;6.552;2022-12-04T06:26:31;44.20;;;23.27;;
51724;SDS011;37801;53.224;6.552;2022-12-04T06:28:57;48.75;;;25.83;;
51724;SDS011;37801;53.224;6.552;2022-12-04T06:31:24;45.47;;;24.48;;
51724;SDS011;37801;53.224;6.552;2022-12-04T06:33:52;42.38;;;22.63;;
51724;SDS011;37801;53.224;6.552;2022-12-04T06:36:19;46.88;;;25.23;;
51724;SDS011;37801;53.224;6.552;2022-12-04T06:38:45;48.70;;;23.13;;
51724;SDS011;37801;53.224;6.552;2022-12-04T06:41:12;46.80;;;24.20;;
51724;SDS011;37801;53.224;6.552;2022-12-04T06:43:40;43.10;;;23.05;;
51724;SDS011;37801;53.224;6.552;2022-12-04T06:46:07;42.85;;;23.60;;
51724;SDS011;37801;53.224;6.552;2022-12-04T06:48:38;45.95;;;23.52;;
51724;SDS011;37801;53.224;6.552;2022-12-04T06:51:06;46.90;;;24.05;;
51724;SDS011;37801;53.224;6.552;2022-12-04T06:53:33;50.33;;;24.85;;
51724;SDS011;37801;53.224;6.552;2022-12-04T06:56:00;46.55;;;23.95;;
51724;SDS011;37801;53.224;6.552;2022-12-04T06:58:28;45.78;;;24.98;;
51724;SDS011;37801;53.224;6.552;2022-12-04T07:00:54;46.47;;;24.15;;
51724;SDS011;37801;53.224;6.552;2022-12-04T07:03:21;46.08;;;24.02;;
51724;SDS011;37801;53.224;6.552;2022-12-04T07:05:47;43.60;;;23.73;;
51724;SDS011;37801;53.224;6.552;2022-12-04T07:08:14;45.15;;;23.27;;
51724;SDS011;37801;53.224;6.552;2022-12-04T07:10:40;44.17;;;23.52;;
51724;SDS011;37801;53.224;6.552;2022-12-04T07:13:06;46.13;;;24.08;;
51724;SDS011;37801;53.224;6.552;2022-12-04T07:15:32;46.10;;;24.05;;
51724;SDS011;37801;53.224;6.552;2022-12-04T07:17:59;47.47;;;24.63;;
51724;SDS011;37801;53.224;6.552;2022-12-04T07:20:25;46.40;;;24.20;;
51724;SDS011;37801;53.224;6.552;2022-12-04T07:22:51;45.35;;;24.02;;
51724;SDS011;37801;53.224;6.552;2022-12-04T07:25:17;47.25;;;24.65;;
51724;SDS011;37801;53.224;6.552;2022-12-04T07:27:43;45.72;;;23.58;;
51724;SDS011;37801;53.224;6.552;2022-12-04T07:30:09;46.40;;;24.00;;
51724;SDS011;37801;53.224;6.552;2022-12-04T07:32:35;44.20;;;23.77;;
51724;SDS011;37801;53.224;6.552;2022-12-04T07:35:01;46.53;;;24.00;;
51724;SDS011;37801;53.224;6.552;2022-12-04T07:37:28;47.83;;;24.15;;
51724;SDS011;37801;53.224;6.552;2022-12-04T07:39:54;48.78;;;25.05;;
51724;SDS011;37801;53.224;6.552;2022-12-04T07:42:19;47.13;;;24.63;;
51724;SDS011;37801;53.224;6.552;2022-12-04T07:44:45;46.75;;;23.67;;
51724;SDS011;37801;53.224;6.552;2022-12-04T07:47:11;43.92;;;23.83;;
51724;SDS011;37801;53.224;6.552;2022-12-04T07:49:37;46.00;;;23.77;;
51724;SDS011;37801;53.224;6.552;2022-12-04T07:52:04;47.10;;;24.10;;
51724;SDS011;37801;53.224;6.552;2022-12-04T07:54:30;46.05;;;24.08;;
51724;SDS011;37801;53.224;6.552;2022-12-04T07:56:56;45.15;;;24.40;;
51724;SDS011;37801;53.224;6.552;2022-12-04T07:59:22;41.88;;;23.08;;
51724;SDS011;37801;53.224;6.552;2022-12-04T08:01:47;44.88;;;24.63;;
51724;SDS011;37801;53.224;6.552;2022-12-04T08:04:13;43.28;;;23.98;;
51724;SDS011;37801;53.224;6.552;2022-12-04T08:06:39;47.78;;;25.23;;
51724;SDS011;37801;53.224;6.552;2022-12-04T08:09:05;45.03;;;23.83;;
51724;SDS011;37801;53.224;6.552;2022-12-04T08:11:31;41.30;;;23.52;;
51724;SDS011;37801;53.224;6.552;2022-12-04T08:14:01;44.38;;;22.95;;
51724;SDS011;37801;53.224;6.552;2022-12-04T08:16:29;44.70;;;23.63;;
51724;SDS011;37801;53.224;6.552;2022-12-04T08:18:56;45.17;;;24.25;;
51724;SDS011;37801;53.224;6.552;2022-12-04T08:21:23;43.53;;;22.73;;
51724;SDS011;37801;53.224;6.552;2022-12-04T08:23:52;43.08;;;23.88;;
51724;SDS011;37801;53.224;6.552;2022-12-04T08:26:19;44.03;;;24.05;;
51724;SDS011;37801;53.224;6.552;2022-12-04T08:28:46;44.15;;;23.65;;
51724;SDS011;37801;53.224;6.552;2022-12-04T08:31:13;45.05;;;24.00;;
51724;SDS011;37801;53.224;6.552;2022-12-04T08:33:39;48.42;;;24.75;;
51724;SDS011;37801;53.224;6.552;2022-12-04T08:36:06;43.03;;;24.05;;
51724;SDS011;37801;53.224;6.552;2022-12-04T08:38:33;41.97;;;22.88;;
51724;SDS011;37801;53.224;6.552;2022-12-04T08:41:00;46.40;;;24.83;;
51724;SDS011;37801;53.224;6.552;2022-12-04T08:43:27;45.67;;;24.85;;
51724;SDS011;37801;53.224;6.552;2022-12-04T08:46:04;46.00;;;24.70;;
51724;SDS011;37801;53.224;6.552;2022-12-04T08:48:31;43.33;;;23.95;;
51724;SDS011;37801;53.224;6.552;2022-12-04T08:50:57;41.97;;;23.13;;
51724;SDS011;37801;53.224;6.552;2022-12-04T08:53:23;38.20;;;22.52;;
51724;SDS011;37801;53.224;6.552;2022-12-04T08:55:50;41.15;;;22.42;;
51724;SDS011;37801;53.224;6.552;2022-12-04T08:58:16;43.28;;;23.30;;
51724;SDS011;37801;53.224;6.552;2022-12-04T09:00:43;40.63;;;21.98;;
51724;SDS011;37801;53.224;6.552;2022-12-04T09:03:10;43.60;;;22.80;;
51724;SDS011;37801;53.224;6.552;2022-12-04T09:05:38;43.40;;;23.17;;
51724;SDS011;37801;53.224;6.552;2022-12-04T09:08:05;39.88;;;23.02;;
51724;SDS011;37801;53.224;6.552;2022-12-04T09:10:32;42.80;;;23.02;;
51724;SDS011;37801;53.224;6.552;2022-12-04T09:12:59;43.17;;;23.27;;
51724;SDS011;37801;53.224;6.552;2022-12-04T09:15:25;38.45;;;21.83;;
51724;SDS011;37801;53.224;6.552;2022-12-04T09:17:51;41.45;;;21.80;;
51724;SDS011;37801;53.224;6.552;2022-12-04T09:20:16;38.63;;;21.30;;
51724;SDS011;37801;53.224;6.552;2022-12-04T09:22:42;39.83;;;21.52;;
51724;SDS011;37801;53.224;6.552;2022-12-04T09:25:08;41.03;;;22.23;;
51724;SDS011;37801;53.224;6.552;2022-12-04T09:27:36;38.10;;;21.58;;
51724;SDS011;37801;53.224;6.552;2022-12-04T09:30:03;40.45;;;22.98;;
51724;SDS011;37801;53.224;6.552;2022-12-04T09:32:30;39.90;;;21.52;;
51724;SDS011;37801;53.224;6.552;2022-12-04T09:34:55;40.15;;;22.70;;
51724;SDS011;37801;53.224;6.552;2022-12-04T09:37:21;40.75;;;22.65;;
51724;SDS011;37801;53.224;6.552;2022-12-04T09:39:47;43.25;;;23.40;;
51724;SDS011;37801;53.224;6.552;2022-12-04T09:42:22;47.35;;;24.73;;
51724;SDS011;37801;53.224;6.552;2022-12-04T09:45:04;34.63;;;19.30;;
51724;SDS011;37801;53.224;6.552;2022-12-04T09:50:38;29.25;;;16.60;;
51724;SDS011;37801;53.224;6.552;2022-12-04T09:53:02;30.65;;;16.98;;
51724;SDS011;37801;53.224;6.552;2022-12-04T09:58:11;33.55;;;18.70;;
51724;SDS011;37801;53.224;6.552;2022-12-04T10:00:41;29.17;;;16.65;;
51724;SDS011;37801;53.224;6.552;2022-12-04T10:03:13;32.55;;;17.02;;
51724;SDS011;37801;53.224;6.552;2022-12-04T10:08:31;31.42;;;16.67;;
51724;SDS011;37801;53.224;6.552;2022-12-04T10:11:11;30.95;;;17.42;;
51724;SDS011;37801;53.224;6.552;2022-12-04T10:16:23;33.53;;;18.30;;
51724;SDS011;37801;53.224;6.552;2022-12-04T10:24:42;28.77;;;16.38;;
51724;SDS011;37801;53.224;6.552;2022-12-04T10:27:27;29.48;;;16.88;;
51724;SDS011;37801;53.224;6.552;2022-12-04T10:30:09;27.65;;;15.73;;
51724;SDS011;37801;53.224;6.552;2022-12-04T10:32:45;26.55;;;15.30;;
51724;SDS011;37801;53.224;6.552;2022-12-04T10:35:26;26.75;;;14.98;;
51724;SDS011;37801;53.224;6.552;2022-12-04T10:37:57;27.30;;;14.77;;
51724;SDS011;37801;53.224;6.552;2022-12-04T10:41:02;27.65;;;15.50;;
51724;SDS011;37801;53.224;6.552;2022-12-04T10:46:09;27.20;;;15.50;;
51724;SDS011;37801;53.224;6.552;2022-12-04T10:48:39;26.13;;;14.55;;
51724;SDS011;37801;53.224;6.552;2022-12-04T10:51:15;26.20;;;15.20;;
51724;SDS011;37801;53.224;6.552;2022-12-04T10:53:42;26.30;;;14.75;;
51724;SDS011;37801;53.224;6.552;2022-12-04T10:59:04;24.92;;;13.77;;
51724;SDS011;37801;53.224;6.552;2022-12-04T11:01:30;23.60;;;12.95;;
51724;SDS011;37801;53.224;6.552;2022-12-04T11:04:05;21.50;;;13.00;;
51724;SDS011;37801;53.224;6.552;2022-12-04T11:06:34;20.27;;;11.90;;
51724;SDS011;37801;53.224;6.552;2022-12-04T11:09:00;20.58;;;12.02;;
51724;SDS011;37801;53.224;6.552;2022-12-04T11:11:33;23.73;;;12.13;;
51724;SDS011;37801;53.224;6.552;2022-12-04T11:14:21;20.92;;;12.52;;
51724;SDS011;37801;53.224;6.552;2022-12-04T11:16:48;21.38;;;12.50;;
51724;SDS011;37801;53.224;6.552;2022-12-04T11:19:28;23.95;;;11.98;;
51724;SDS011;37801;53.224;6.552;2022-12-04T11:21:57;18.65;;;10.93;;
51724;SDS011;37801;53.224;6.552;2022-12-04T11:24:31;21.05;;;11.73;;
51724;SDS011;37801;53.224;6.552;2022-12-04T11:26:59;20.50;;;11.82;;
51724;SDS011;37801;53.224;6.552;2022-12-04T11:29:45;21.40;;;12.43;;
51724;SDS011;37801;53.224;6.552;2022-12-04T11:32:32;22.70;;;12.63;;
51724;SDS011;37801;53.224;6.552;2022-12-04T11:35:00;19.50;;;11.93;;
51724;SDS011;37801;53.224;6.552;2022-12-04T11:37:36;22.00;;;12.45;;
51724;SDS011;37801;53.224;6.552;2022-12-04T11:40:04;20.63;;;11.70;;
51724;SDS011;37801;53.224;6.552;2022-12-04T11:42:38;22.33;;;13.73;;
51724;SDS011;37801;53.224;6.552;2022-12-04T11:45:18;23.08;;;13.52;;
51724;SDS011;37801;53.224;6.552;2022-12-04T11:48:21;23.98;;;13.77;;
51724;SDS011;37801;53.224;6.552;2022-12-04T11:53:40;22.70;;;13.55;;
51724;SDS011;37801;53.224;6.552;2022-12-04T12:09:51;21.77;;;12.32;;
51724;SDS011;37801;53.224;6.552;2022-12-04T12:12:21;21.95;;;13.07;;
51724;SDS011;37801;53.224;6.552;2022-12-04T12:15:17;22.38;;;12.85;;
51724;SDS011;37801;53.224;6.552;2022-12-04T12:20:29;20.98;;;12.18;;
51724;SDS011;37801;53.224;6.552;2022-12-04T12:22:59;25.33;;;13.27;;
51724;SDS011;37801;53.224;6.552;2022-12-04T12:31:26;22.52;;;12.73;;
51724;SDS011;37801;53.224;6.552;2022-12-04T12:33:55;22.25;;;13.00;;
51724;SDS011;37801;53.224;6.552;2022-12-04T12:36:27;21.13;;;12.43;;
51724;SDS011;37801;53.224;6.552;2022-12-04T12:39:00;22.35;;;12.77;;
51724;SDS011;37801;53.224;6.552;2022-12-04T12:41:35;24.45;;;13.77;;
51724;SDS011;37801;53.224;6.552;2022-12-04T12:44:08;24.27;;;14.10;;
51724;SDS011;37801;53.224;6.552;2022-12-04T12:46:41;28.83;;;16.77;;
51724;SDS011;37801;53.224;6.552;2022-12-04T12:54:52;44.75;;;24.33;;
51724;SDS011;37801;53.224;6.552;2022-12-04T13:02:32;25.98;;;14.50;;
51724;SDS011;37801;53.224;6.552;2022-12-04T13:05:08;24.13;;;13.82;;
51724;SDS011;37801;53.224;6.552;2022-12-04T13:10:22;24.85;;;13.85;;
51724;SDS011;37801;53.224;6.552;2022-12-04T13:13:19;23.48;;;13.68;;
51724;SDS011;37801;53.224;6.552;2022-12-04T13:16:01;22.63;;;12.45;;
51724;SDS011;37801;53.224;6.552;2022-12-04T13:18:41;22.75;;;13.75;;
51724;SDS011;37801;53.224;6.552;2022-12-04T13:21:23;26.00;;;13.70;;
51724;SDS011;37801;53.224;6.552;2022-12-04T13:24:22;22.25;;;13.32;;
51724;SDS011;37801;53.224;6.552;2022-12-04T13:38:08;27.15;;;14.50;;
51724;SDS011;37801;53.224;6.552;2022-12-04T13:40:59;27.88;;;14.88;;
51724;SDS011;37801;53.224;6.552;2022-12-04T13:45:55;30.08;;;15.88;;
51724;SDS011;37801;53.224;6.552;2022-12-04T13:48:28;27.23;;;15.48;;
51724;SDS011;37801;53.224;6.552;2022-12-04T13:51:19;32.45;;;17.33;;
51724;SDS011;37801;53.224;6.552;2022-12-04T13:56:44;34.50;;;17.52;;
51724;SDS011;37801;53.224;6.552;2022-12-04T13:59:23;28.95;;;14.98;;
51724;SDS011;37801;53.224;6.552;2022-12-04T14:01:59;26.73;;;15.23;;
51724;SDS011;37801;53.224;6.552;2022-12-04T14:04:35;33.20;;;16.67;;
51724;SDS011;37801;53.224;6.552;2022-12-04T14:07:32;30.70;;;16.33;;
51724;SDS011;37801;53.224;6.552;2022-12-04T14:10:02;27.45;;;14.52;;
51724;SDS011;37801;53.224;6.552;2022-12-04T14:13:00;30.70;;;15.23;;
51724;SDS011;37801;53.224;6.552;2022-12-04T14:15:31;26.58;;;15.13;;
51724;SDS011;37801;53.224;6.552;2022-12-04T14:18:24;30.58;;;15.98;;
51724;SDS011;37801;53.224;6.552;2022-12-04T14:20:59;28.45;;;15.30;;
51724;SDS011;37801;53.224;6.552;2022-12-04T14:23:39;30.70;;;16.52;;
51724;SDS011;37801;53.224;6.552;2022-12-04T14:32:25;34.35;;;16.25;;
51724;SDS011;37801;53.224;6.552;2022-12-04T14:34:55;33.10;;;16.70;;
51724;SDS011;37801;53.224;6.552;2022-12-04T14:37:29;30.35;;;15.77;;
51724;SDS011;37801;53.224;6.552;2022-12-04T14:40:00;29.38;;;15.30;;
51724;SDS011;37801;53.224;6.552;2022-12-04T14:42:37;25.40;;;12.97;;
51724;SDS011;37801;53.224;6.552;2022-12-04T14:45:05;20.25;;;11.40;;
51724;SDS011;37801;53.224;6.552;2022-12-04T14:48:06;18.88;;;11.25;;
51724;SDS011;37801;53.224;6.552;2022-12-04T14:53:26;20.35;;;11.15;;
51724;SDS011;37801;53.224;6.552;2022-12-04T14:58:47;24.55;;;12.68;;
51724;SDS011;37801;53.224;6.552;2022-12-04T15:01:26;21.42;;;12.00;;
51724;SDS011;37801;53.224;6.552;2022-12-04T15:04:03;24.10;;;13.23;;
51724;SDS011;37801;53.224;6.552;2022-12-04T15:06:50;22.75;;;13.30;;
51724;SDS011;37801;53.224;6.552;2022-12-04T15:09:22;25.15;;;13.73;;
51724;SDS011;37801;53.224;6.552;2022-12-04T15:12:18;30.52;;;15.45;;
51724;SDS011;37801;53.224;6.552;2022-12-04T15:14:58;28.73;;;15.20;;
51724;SDS011;37801;53.224;6.552;2022-12-04T15:17:29;31.67;;;16.05;;
51724;SDS011;37801;53.224;6.552;2022-12-04T15:19:55;26.65;;;14.73;;
51724;SDS011;37801;53.224;6.552;2022-12-04T15:22:32;34.25;;;16.02;;
51724;SDS011;37801;53.224;6.552;2022-12-04T15:24:58;27.40;;;15.55;;
51724;SDS011;37801;53.224;6.552;2022-12-04T15:27:24;29.77;;;16.10;;
51724;SDS011;37801;53.224;6.552;2022-12-04T15:29:51;29.08;;;15.93;;
51724;SDS011;37801;53.224;6.552;2022-12-04T15:32:21;29.05;;;15.13;;
51724;SDS011;37801;53.224;6.552;2022-12-04T15:34:50;29.38;;;15.30;;
51724;SDS011;37801;53.224;6.552;2022-12-04T15:37:19;34.95;;;18.05;;
51724;SDS011;37801;53.224;6.552;2022-12-04T15:39:49;32.95;;;16.58;;
51724;SDS011;37801;53.224;6.552;2022-12-04T15:47:19;34.95;;;18.40;;
51724;SDS011;37801;53.224;6.552;2022-12-04T15:49:46;30.95;;;17.45;;
51724;SDS011;37801;53.224;6.552;2022-12-04T15:52:13;32.90;;;18.25;;
51724;SDS011;37801;53.224;6.552;2022-12-04T15:54:49;36.53;;;18.42;;
51724;SDS011;37801;53.224;6.552;2022-12-04T15:57:34;31.75;;;17.55;;
51724;SDS011;37801;53.224;6.552;2022-12-04T16:00:06;35.20;;;19.17;;
51724;SDS011;37801;53.224;6.552;2022-12-04T16:02:46;35.80;;;18.70;;
51724;SDS011;37801;53.224;6.552;2022-12-04T16:05:34;31.75;;;17.27;;
51724;SDS011;37801;53.224;6.552;2022-12-04T16:13:47;35.13;;;18.13;;
51724;SDS011;37801;53.224;6.552;2022-12-04T16:16:19;34.08;;;18.77;;
51724;SDS011;37801;53.224;6.552;2022-12-04T16:18:46;37.00;;;19.70;;
51724;SDS011;37801;53.224;6.552;2022-12-04T16:21:16;33.92;;;18.65;;
51724;SDS011;37801;53.224;6.552;2022-12-04T16:23:43;34.00;;;18.60;;
51724;SDS011;37801;53.224;6.552;2022-12-04T16:26:14;32.05;;;18.20;;
51724;SDS011;37801;53.224;6.552;2022-12-04T16:28:41;34.97;;;18.95;;
51724;SDS011;37801;53.224;6.552;2022-12-04T16:31:10;33.55;;;18.42;;
51724;SDS011;37801;53.224;6.552;2022-12-04T16:33:37;36.50;;;19.75;;
51724;SDS011;37801;53.224;6.552;2022-12-04T16:36:03;33.58;;;18.65;;
51724;SDS011;37801;53.224;6.552;2022-12-04T16:38:29;33.47;;;18.85;;
51724;SDS011;37801;53.224;6.552;2022-12-04T16:40:55;35.33;;;19.50;;
51724;SDS011;37801;53.224;6.552;2022-12-04T16:43:21;33.55;;;19.52;;
51724;SDS011;37801;53.224;6.552;2022-12-04T16:45:48;36.38;;;19.95;;
51724;SDS011;37801;53.224;6.552;2022-12-04T16:48:16;36.20;;;18.35;;
51724;SDS011;37801;53.224;6.552;2022-12-04T16:50:42;33.28;;;18.25;;
51724;SDS011;37801;53.224;6.552;2022-12-04T16:53:13;35.63;;;18.80;;
51724;SDS011;37801;53.224;6.552;2022-12-04T16:55:42;35.03;;;19.27;;
51724;SDS011;37801;53.224;6.552;2022-12-04T16:58:09;32.00;;;17.40;;